createdAt,value
2018-03-01T00:00:14.807Z,1014.55
2018-03-01T00:01:14.793Z,1014.53
2018-03-01T00:02:14.787Z,1014.64
2018-03-01T00:03:14.835Z,1014.65
2018-03-01T00:04:14.778Z,1014.75
2018-03-01T00:05:14.952Z,1014.81
2018-03-01T00:06:14.787Z,1014.72
2018-03-01T00:07:14.810Z,1014.76
2018-03-01T00:08:14.818Z,1014.74
2018-03-01T00:09:14.831Z,1014.65
2018-03-01T00:10:14.830Z,1014.68
2018-03-01T00:11:14.795Z,1014.7
2018-03-01T00:12:14.796Z,1014.75
2018-03-01T00:13:14.812Z,1014.78
2018-03-01T00:14:14.768Z,1014.84
2018-03-01T00:15:14.792Z,1014.8
2018-03-01T00:16:14.798Z,1014.75
2018-03-01T00:17:14.837Z,1014.89
2018-03-01T00:18:14.799Z,1014.72
2018-03-01T00:19:14.800Z,1014.71
2018-03-01T00:20:14.795Z,1014.7
2018-03-01T00:21:14.892Z,1014.68
2018-03-01T00:22:14.924Z,1014.73
2018-03-01T00:23:14.789Z,1014.71
2018-03-01T00:24:14.812Z,1014.66
2018-03-01T00:25:14.812Z,1014.76
2018-03-01T00:26:14.800Z,1014.78
2018-03-01T00:27:14.813Z,1014.71
2018-03-01T00:28:14.792Z,1014.8
2018-03-01T00:29:14.777Z,1014.76
2018-03-01T00:30:14.781Z,1014.69
2018-03-01T00:31:14.781Z,1014.73
2018-03-01T00:32:15.075Z,1014.69
2018-03-01T00:33:14.808Z,1014.67
2018-03-01T00:34:14.800Z,1014.6
2018-03-01T00:35:14.793Z,1014.56
2018-03-01T00:36:14.638Z,1014.61
2018-03-01T00:37:14.806Z,1014.54
2018-03-01T00:38:14.788Z,1014.57
2018-03-01T00:39:14.770Z,1014.66
2018-03-01T00:40:14.802Z,1014.65
2018-03-01T00:41:14.792Z,1014.61
2018-03-01T00:42:20.180Z,1014.65
2018-03-01T00:43:14.790Z,1014.61
2018-03-01T00:44:14.786Z,1014.67
2018-03-01T00:45:14.774Z,1014.52
2018-03-01T00:46:14.810Z,1014.47
2018-03-01T00:47:14.781Z,1014.48
2018-03-01T00:48:14.791Z,1014.39
2018-03-01T00:49:14.792Z,1014.39
2018-03-01T00:50:14.792Z,1014.36
2018-03-01T00:51:14.809Z,1014.28
2018-03-01T00:52:14.766Z,1014.3
2018-03-01T00:53:14.784Z,1014.18
2018-03-01T00:54:14.793Z,1014.19
2018-03-01T00:55:14.778Z,1014.09
2018-03-01T00:56:14.788Z,1014.11
2018-03-01T00:57:14.761Z,1014.09
2018-03-01T00:58:14.816Z,1014.08
2018-03-01T00:59:14.775Z,1014.05
2018-03-01T01:00:14.797Z,1013.99
2018-03-01T01:01:14.800Z,1013.96
2018-03-01T01:02:14.808Z,1013.93
2018-03-01T01:03:14.788Z,1013.85
2018-03-01T01:04:14.785Z,1013.99
2018-03-01T01:05:14.829Z,1013.81
2018-03-01T01:06:14.790Z,1013.89
2018-03-01T01:07:14.781Z,1013.86
2018-03-01T01:08:14.767Z,1013.89
2018-03-01T01:09:14.787Z,1013.83
2018-03-01T01:10:14.827Z,1013.81
2018-03-01T01:11:14.791Z,1013.75
2018-03-01T01:12:14.771Z,1013.78
2018-03-01T01:13:14.801Z,1013.76
2018-03-01T01:14:14.798Z,1013.75
2018-03-01T01:15:14.770Z,1013.78
2018-03-01T01:16:14.817Z,1013.67
2018-03-01T01:17:14.780Z,1013.71
2018-03-01T01:18:14.751Z,1013.65
2018-03-01T01:19:14.769Z,1013.74
2018-03-01T01:20:14.787Z,1013.68
2018-03-01T01:21:14.838Z,1013.68
2018-03-01T01:22:14.793Z,1013.59
2018-03-01T01:23:14.788Z,1013.61
2018-03-01T01:24:14.792Z,1013.58
2018-03-01T01:25:14.788Z,1013.64
2018-03-01T01:26:14.788Z,1013.57
2018-03-01T01:27:14.781Z,1013.61
2018-03-01T01:28:14.775Z,1013.54
2018-03-01T01:29:14.773Z,1013.57
2018-03-01T01:30:14.782Z,1013.54
2018-03-01T01:31:14.951Z,1013.57
2018-03-01T01:32:14.773Z,1013.52
2018-03-01T01:33:14.761Z,1013.54
2018-03-01T01:34:14.760Z,1013.45
2018-03-01T01:35:14.749Z,1013.41
2018-03-01T01:36:14.808Z,1013.46
2018-03-01T01:37:14.778Z,1013.45
2018-03-01T01:38:14.778Z,1013.44
2018-03-01T01:39:14.764Z,1013.47
2018-03-01T01:40:14.781Z,1013.42
2018-03-01T01:41:14.774Z,1013.46
2018-03-01T01:42:14.773Z,1013.41
2018-03-01T01:43:14.802Z,1013.4
2018-03-01T01:44:14.758Z,1013.45
2018-03-01T01:45:14.775Z,1013.39
2018-03-01T01:46:14.777Z,1013.37
2018-03-01T01:47:15.043Z,1013.22
2018-03-01T01:48:14.772Z,1013.3
2018-03-01T01:49:14.735Z,1013.3
2018-03-01T01:50:14.774Z,1013.3
2018-03-01T01:51:14.762Z,1013.35
2018-03-01T01:52:14.789Z,1013.26
2018-03-01T01:53:14.762Z,1013.25
2018-03-01T01:54:14.760Z,1013.24
2018-03-01T01:55:14.757Z,1013.19
2018-03-01T01:56:14.741Z,1013.11
2018-03-01T01:57:14.620Z,1013.21
2018-03-01T01:58:14.756Z,1013.16
2018-03-01T01:59:14.757Z,1013.16
2018-03-01T02:00:14.767Z,1013.17
2018-03-01T02:01:14.765Z,1013.13
2018-03-01T02:02:14.808Z,1013.11
2018-03-01T02:03:15.019Z,1013.11
2018-03-01T02:04:14.737Z,1013.19
2018-03-01T02:05:14.760Z,1013.1
2018-03-01T02:06:14.743Z,1013.14
2018-03-01T02:07:14.768Z,1013.12
2018-03-01T02:08:14.784Z,1013.02
2018-03-01T02:09:14.769Z,1013.08
2018-03-01T02:10:14.773Z,1013.11
2018-03-01T02:11:14.766Z,1013.14
2018-03-01T02:12:14.736Z,1013.1
2018-03-01T02:13:14.756Z,1013.02
2018-03-01T02:14:14.752Z,1012.97
2018-03-01T02:15:14.759Z,1013.01
2018-03-01T02:16:14.754Z,1012.95
2018-03-01T02:17:14.781Z,1012.87
2018-03-01T02:18:14.771Z,1012.81
2018-03-01T02:19:14.767Z,1012.84
2018-03-01T02:20:14.755Z,1012.78
2018-03-01T02:21:14.777Z,1012.74
2018-03-01T02:22:14.883Z,1012.72
2018-03-01T02:23:14.858Z,1012.74
2018-03-01T02:24:14.748Z,1012.69
2018-03-01T02:25:14.742Z,1012.71
2018-03-01T02:26:14.754Z,1012.7
2018-03-01T02:27:14.744Z,1012.71
2018-03-01T02:28:14.752Z,1012.61
2018-03-01T02:29:14.739Z,1012.66
2018-03-01T02:30:14.756Z,1012.57
2018-03-01T02:31:14.763Z,1012.59
2018-03-01T02:32:14.745Z,1012.52
2018-03-01T02:33:14.746Z,1012.54
2018-03-01T02:34:14.727Z,1012.49
2018-03-01T02:35:14.754Z,1012.47
2018-03-01T02:36:14.742Z,1012.47
2018-03-01T02:37:14.760Z,1012.44
2018-03-01T02:38:14.781Z,1012.38
2018-03-01T02:39:14.733Z,1012.49
2018-03-01T02:40:14.781Z,1012.47
2018-03-01T02:41:14.766Z,1012.33
2018-03-01T02:42:14.736Z,1012.42
2018-03-01T02:43:14.781Z,1012.29
2018-03-01T02:44:14.759Z,1012.32
2018-03-01T02:45:14.751Z,1012.32
2018-03-01T02:46:14.746Z,1012.29
2018-03-01T02:47:14.754Z,1012.36
2018-03-01T02:48:14.774Z,1012.39
2018-03-01T02:49:14.733Z,1012.35
2018-03-01T02:50:14.720Z,1012.31
2018-03-01T02:51:14.739Z,1012.3
2018-03-01T02:52:14.744Z,1012.35
2018-03-01T02:53:14.717Z,1012.19
2018-03-01T02:54:14.826Z,1012.27
2018-03-01T02:55:14.744Z,1012.2
2018-03-01T02:56:14.737Z,1012.29
2018-03-01T02:57:14.729Z,1012.18
2018-03-01T02:58:14.750Z,1012.27
2018-03-01T02:59:14.723Z,1012.21
2018-03-01T03:00:14.726Z,1012.14
2018-03-01T03:01:14.730Z,1012.13
2018-03-01T03:02:14.758Z,1012.05
2018-03-01T03:03:14.731Z,1012.08
2018-03-01T03:04:15.016Z,1012.07
2018-03-01T03:05:14.746Z,1012.12
2018-03-01T03:06:14.742Z,1012.11
2018-03-01T03:07:14.728Z,1012.17
2018-03-01T03:08:14.738Z,1012.18
2018-03-01T03:09:14.756Z,1012.25
2018-03-01T03:10:14.725Z,1012.37
2018-03-01T03:11:14.717Z,1012.37
2018-03-01T03:12:14.736Z,1012.43
2018-03-01T03:13:14.725Z,1012.39
2018-03-01T03:14:14.748Z,1012.5
2018-03-01T03:15:14.738Z,1012.46
2018-03-01T03:16:14.754Z,1012.46
2018-03-01T03:17:14.744Z,1012.46
2018-03-01T03:18:14.716Z,1012.5
2018-03-01T03:19:14.718Z,1012.47
2018-03-01T03:20:14.753Z,1012.45
2018-03-01T03:21:14.724Z,1012.45
2018-03-01T03:22:14.707Z,1012.4
2018-03-01T03:23:14.718Z,1012.37
2018-03-01T03:24:14.747Z,1012.39
2018-03-01T03:25:15.045Z,1012.3
2018-03-01T03:26:14.706Z,1012.21
2018-03-01T03:27:14.729Z,1012.15
2018-03-01T03:28:14.723Z,1012.11
2018-03-01T03:29:14.737Z,1012.08
2018-03-01T03:30:14.794Z,1012.07
2018-03-01T03:31:14.742Z,1012.02
2018-03-01T03:32:14.717Z,1012.08
2018-03-01T03:33:14.762Z,1012.02
2018-03-01T03:34:14.726Z,1011.96
2018-03-01T03:35:14.728Z,1011.99
2018-03-01T03:36:14.724Z,1011.94
2018-03-01T03:37:14.741Z,1012.02
2018-03-01T03:38:14.727Z,1012.02
2018-03-01T03:39:14.734Z,1012.03
2018-03-01T03:40:14.754Z,1011.95
2018-03-01T03:41:14.727Z,1011.93
2018-03-01T03:42:14.716Z,1011.94
2018-03-01T03:43:14.737Z,1011.94
2018-03-01T03:44:14.762Z,1011.89
2018-03-01T03:45:14.727Z,1011.87
2018-03-01T03:46:14.718Z,1011.87
2018-03-01T03:47:14.761Z,1011.84
2018-03-01T03:48:14.715Z,1011.8
2018-03-01T03:49:14.717Z,1011.82
2018-03-01T03:50:14.713Z,1011.83
2018-03-01T03:51:14.733Z,1011.82
2018-03-01T03:52:14.703Z,1011.84
2018-03-01T03:53:14.725Z,1011.87
2018-03-01T03:54:14.742Z,1011.83
2018-03-01T03:55:14.732Z,1011.81
2018-03-01T03:56:14.759Z,1011.81
2018-03-01T03:57:14.746Z,1011.85
2018-03-01T03:58:14.714Z,1011.84
2018-03-01T03:59:14.723Z,1011.84
2018-03-01T04:00:14.701Z,1011.85
2018-03-01T04:01:14.737Z,1011.82
2018-03-01T04:02:14.742Z,1011.8
2018-03-01T04:03:14.732Z,1011.86
2018-03-01T04:04:14.714Z,1011.79
2018-03-01T04:05:14.718Z,1011.77
2018-03-01T04:06:14.695Z,1011.8
2018-03-01T04:07:14.723Z,1011.8
2018-03-01T04:08:14.706Z,1011.67
2018-03-01T04:09:14.736Z,1011.75
2018-03-01T04:10:14.727Z,1011.7
2018-03-01T04:11:14.707Z,1011.64
2018-03-01T04:12:14.735Z,1011.68
2018-03-01T04:13:14.762Z,1011.67
2018-03-01T04:14:14.708Z,1011.67
2018-03-01T04:15:14.730Z,1011.66
2018-03-01T04:16:14.692Z,1011.7
2018-03-01T04:17:14.775Z,1011.6
2018-03-01T04:18:14.691Z,1011.62
2018-03-01T04:19:14.720Z,1011.64
2018-03-01T04:20:14.718Z,1011.64
2018-03-01T04:21:14.728Z,1011.62
2018-03-01T04:22:14.718Z,1011.67
2018-03-01T04:23:14.792Z,1011.65
2018-03-01T04:24:14.804Z,1011.55
2018-03-01T04:25:14.729Z,1011.61
2018-03-01T04:26:14.706Z,1011.62
2018-03-01T04:27:14.734Z,1011.63
2018-03-01T04:28:14.699Z,1011.7
2018-03-01T04:29:14.694Z,1011.63
2018-03-01T04:30:14.698Z,1011.58
2018-03-01T04:31:14.705Z,1011.59
2018-03-01T04:32:14.734Z,1011.59
2018-03-01T04:33:14.722Z,1011.61
2018-03-01T04:34:14.714Z,1011.59
2018-03-01T04:35:14.777Z,1011.56
2018-03-01T04:36:14.696Z,1011.57
2018-03-01T04:37:14.687Z,1011.46
2018-03-01T04:38:14.980Z,1011.58
2018-03-01T04:39:14.695Z,1011.51
2018-03-01T04:40:14.689Z,1011.58
2018-03-01T04:41:14.699Z,1011.46
2018-03-01T04:42:14.696Z,1011.56
2018-03-01T04:43:14.733Z,1011.48
2018-03-01T04:44:14.693Z,1011.55
2018-03-01T04:45:14.693Z,1011.56
2018-03-01T04:46:14.694Z,1011.51
2018-03-01T04:47:14.706Z,1011.47
2018-03-01T04:48:14.732Z,1011.45
2018-03-01T04:49:14.718Z,1011.44
2018-03-01T04:50:14.675Z,1011.42
2018-03-01T04:51:14.697Z,1011.41
2018-03-01T04:52:14.713Z,1011.43
2018-03-01T04:53:14.700Z,1011.45
2018-03-01T04:54:14.719Z,1011.45
2018-03-01T04:55:14.705Z,1011.42
2018-03-01T04:56:14.695Z,1011.47
2018-03-01T04:57:14.729Z,1011.53
2018-03-01T04:58:14.741Z,1011.45
2018-03-01T04:59:14.729Z,1011.45
2018-03-01T05:00:14.714Z,1011.44
2018-03-01T05:01:14.687Z,1011.42
2018-03-01T05:02:14.689Z,1011.43
2018-03-01T05:03:14.711Z,1011.44
2018-03-01T05:04:14.679Z,1011.34
2018-03-01T05:05:14.730Z,1011.39
2018-03-01T05:06:14.698Z,1011.41
2018-03-01T05:07:14.691Z,1011.41
2018-03-01T05:08:14.680Z,1011.36
2018-03-01T05:09:14.672Z,1011.27
2018-03-01T05:10:14.706Z,1011.41
2018-03-01T05:11:14.676Z,1011.36
2018-03-01T05:12:14.676Z,1011.34
2018-03-01T05:13:14.743Z,1011.34
2018-03-01T05:14:14.679Z,1011.35
2018-03-01T05:15:14.668Z,1011.28
2018-03-01T05:16:14.855Z,1011.29
2018-03-01T05:17:14.688Z,1011.27
2018-03-01T05:18:14.704Z,1011.29
2018-03-01T05:19:14.670Z,1011.28
2018-03-01T05:20:14.701Z,1011.24
2018-03-01T05:21:14.676Z,1011.32
2018-03-01T05:22:14.730Z,1011.33
2018-03-01T05:23:14.701Z,1011.3
2018-03-01T05:24:14.681Z,1011.38
2018-03-01T05:25:14.689Z,1011.37
2018-03-01T05:26:14.702Z,1011.34
2018-03-01T05:27:14.692Z,1011.39
2018-03-01T05:28:14.704Z,1011.48
2018-03-01T05:29:14.718Z,1011.27
2018-03-01T05:30:14.724Z,1011.3
2018-03-01T05:31:14.729Z,1011.29
2018-03-01T05:32:14.678Z,1011.31
2018-03-01T05:33:14.687Z,1011.33
2018-03-01T05:34:14.706Z,1011.35
2018-03-01T05:35:14.679Z,1011.34
2018-03-01T05:36:14.695Z,1011.29
2018-03-01T05:37:14.695Z,1011.36
2018-03-01T05:38:14.680Z,1011.35
2018-03-01T05:39:14.675Z,1011.3
2018-03-01T05:40:14.703Z,1011.3
2018-03-01T05:41:14.736Z,1011.28
2018-03-01T05:42:14.660Z,1011.26
2018-03-01T05:43:14.692Z,1011.27
2018-03-01T05:44:14.688Z,1011.25
2018-03-01T05:45:14.690Z,1011.21
2018-03-01T05:46:14.678Z,1011.19
2018-03-01T05:47:14.677Z,1011.22
2018-03-01T05:48:14.682Z,1011.24
2018-03-01T05:49:14.706Z,1011.2
2018-03-01T05:50:14.761Z,1011.26
2018-03-01T05:51:14.665Z,1011.25
2018-03-01T05:52:14.673Z,1011.26
2018-03-01T05:53:14.701Z,1011.21
2018-03-01T05:54:14.690Z,1011.17
2018-03-01T05:55:14.728Z,1011.1
2018-03-01T05:56:14.693Z,1011.08
2018-03-01T05:57:14.675Z,1011.1
2018-03-01T05:58:14.671Z,1011.08
2018-03-01T05:59:14.651Z,1011.02
2018-03-01T06:00:14.721Z,1010.99
2018-03-01T06:01:14.676Z,1011.04
2018-03-01T06:02:14.690Z,1011.05
2018-03-01T06:03:14.666Z,1010.96
2018-03-01T06:04:14.676Z,1011.01
2018-03-01T06:05:14.713Z,1010.95
2018-03-01T06:06:14.668Z,1010.99
2018-03-01T06:07:14.679Z,1011
2018-03-01T06:08:14.684Z,1010.94
2018-03-01T06:09:14.655Z,1010.92
2018-03-01T06:10:14.743Z,1010.91
2018-03-01T06:11:14.672Z,1010.87
2018-03-01T06:12:14.680Z,1010.9
2018-03-01T06:13:14.658Z,1010.91
2018-03-01T06:14:14.683Z,1010.97
2018-03-01T06:15:14.981Z,1010.96
2018-03-01T06:16:14.674Z,1010.95
2018-03-01T06:17:14.680Z,1010.89
2018-03-01T06:18:14.653Z,1010.91
2018-03-01T06:19:14.647Z,1010.95
2018-03-01T06:20:14.685Z,1010.95
2018-03-01T06:21:14.669Z,1010.94
2018-03-01T06:22:14.677Z,1010.93
2018-03-01T06:23:14.662Z,1010.83
2018-03-01T06:24:14.771Z,1010.87
2018-03-01T06:25:14.793Z,1010.85
2018-03-01T06:26:14.671Z,1010.87
2018-03-01T06:27:14.650Z,1010.81
2018-03-01T06:28:14.682Z,1010.86
2018-03-01T06:29:14.645Z,1010.81
2018-03-01T06:30:14.692Z,1010.86
2018-03-01T06:31:14.668Z,1010.85
2018-03-01T06:32:14.672Z,1010.72
2018-03-01T06:33:14.669Z,1010.73
2018-03-01T06:34:14.676Z,1010.73
2018-03-01T06:35:14.672Z,1010.71
2018-03-01T06:36:14.688Z,1010.69
2018-03-01T06:37:14.634Z,1010.7
2018-03-01T06:38:14.665Z,1010.67
2018-03-01T06:39:14.652Z,1010.73
2018-03-01T06:40:14.678Z,1010.7
2018-03-01T06:41:14.644Z,1010.71
2018-03-01T06:42:14.692Z,1010.69
2018-03-01T06:43:14.662Z,1010.7
2018-03-01T06:44:14.696Z,1010.74
2018-03-01T06:45:14.660Z,1010.67
2018-03-01T06:46:14.659Z,1010.68
2018-03-01T06:47:14.675Z,1010.68
2018-03-01T06:48:14.641Z,1010.74
2018-03-01T06:49:14.685Z,1010.71
2018-03-01T06:50:14.663Z,1010.74
2018-03-01T06:51:14.645Z,1010.73
2018-03-01T06:52:14.658Z,1010.75
2018-03-01T06:53:14.727Z,1010.68
2018-03-01T06:54:14.949Z,1010.72
2018-03-01T06:55:14.662Z,1010.79
2018-03-01T06:56:14.655Z,1010.73
2018-03-01T06:57:14.666Z,1010.75
2018-03-01T06:58:14.651Z,1010.81
2018-03-01T06:59:14.689Z,1010.76
2018-03-01T07:00:14.679Z,1010.79
2018-03-01T07:01:14.675Z,1010.79
2018-03-01T07:02:14.677Z,1010.78
2018-03-01T07:03:14.654Z,1010.85
2018-03-01T07:04:14.675Z,1010.83
2018-03-01T07:05:14.657Z,1010.87
2018-03-01T07:06:14.664Z,1010.85
2018-03-01T07:07:14.645Z,1010.86
2018-03-01T07:08:14.656Z,1010.88
2018-03-01T07:09:14.626Z,1010.89
2018-03-01T07:10:14.662Z,1010.87
2018-03-01T07:11:14.740Z,1010.87
2018-03-01T07:12:14.643Z,1010.86
2018-03-01T07:13:14.639Z,1010.82
2018-03-01T07:14:14.638Z,1010.84
2018-03-01T07:15:14.631Z,1010.8
2018-03-01T07:16:14.651Z,1010.82
2018-03-01T07:17:14.634Z,1010.84
2018-03-01T07:18:14.644Z,1010.85
2018-03-01T07:19:14.671Z,1010.8
2018-03-01T07:20:14.689Z,1010.84
2018-03-01T07:21:14.640Z,1010.81
2018-03-01T07:22:14.630Z,1010.79
2018-03-01T07:23:14.649Z,1010.82
2018-03-01T07:24:14.639Z,1010.8
2018-03-01T07:25:14.676Z,1010.76
2018-03-01T07:26:14.639Z,1010.8
2018-03-01T07:27:14.630Z,1010.77
2018-03-01T07:28:14.649Z,1010.86
2018-03-01T07:29:14.648Z,1010.8
2018-03-01T07:30:14.631Z,1010.8
2018-03-01T07:31:14.646Z,1010.83
2018-03-01T07:32:14.667Z,1010.74
2018-03-01T07:33:14.619Z,1010.79
2018-03-01T07:34:14.640Z,1010.76
2018-03-01T07:35:14.645Z,1010.76
2018-03-01T07:36:14.676Z,1010.74
2018-03-01T07:37:14.650Z,1010.78
2018-03-01T07:38:14.612Z,1010.74
2018-03-01T07:39:14.642Z,1010.72
2018-03-01T07:40:14.632Z,1010.66
2018-03-01T07:41:14.631Z,1010.63
2018-03-01T07:42:14.644Z,1010.63
2018-03-01T07:43:14.640Z,1010.64
2018-03-01T07:44:14.623Z,1010.61
2018-03-01T07:45:14.619Z,1010.61
2018-03-01T07:46:14.663Z,1010.6
2018-03-01T07:47:14.637Z,1010.51
2018-03-01T07:48:14.620Z,1010.49
2018-03-01T07:49:14.713Z,1010.5
2018-03-01T07:50:14.650Z,1010.47
2018-03-01T07:51:14.660Z,1010.44
2018-03-01T07:52:14.639Z,1010.36
2018-03-01T07:53:14.620Z,1010.42
2018-03-01T07:54:14.625Z,1010.39
2018-03-01T07:55:14.655Z,1010.4
2018-03-01T07:56:14.771Z,1010.4
2018-03-01T07:57:14.657Z,1010.37
2018-03-01T07:58:14.639Z,1010.39
2018-03-01T07:59:14.649Z,1010.36
2018-03-01T08:00:14.618Z,1010.4
2018-03-01T08:01:14.638Z,1010.27
2018-03-01T08:02:14.632Z,1010.36
2018-03-01T08:03:14.631Z,1010.35
2018-03-01T08:04:14.648Z,1010.36
2018-03-01T08:05:14.648Z,1010.37
2018-03-01T08:06:14.613Z,1010.38
2018-03-01T08:07:14.645Z,1010.3
2018-03-01T08:08:14.632Z,1010.29
2018-03-01T08:09:14.622Z,1010.27
2018-03-01T08:10:14.633Z,1010.23
2018-03-01T08:11:14.701Z,1010.27
2018-03-01T08:12:14.629Z,1010.24
2018-03-01T08:13:14.616Z,1010.23
2018-03-01T08:14:14.634Z,1010.2
2018-03-01T08:15:14.606Z,1010.28
2018-03-01T08:16:14.662Z,1010.33
2018-03-01T08:17:14.629Z,1010.39
2018-03-01T08:18:14.621Z,1010.36
2018-03-01T08:19:14.626Z,1010.32
2018-03-01T08:20:14.614Z,1010.3
2018-03-01T08:21:14.643Z,1010.39
2018-03-01T08:22:14.604Z,1010.34
2018-03-01T08:23:14.611Z,1010.3
2018-03-01T08:24:14.645Z,1010.27
2018-03-01T08:25:14.871Z,1010.27
2018-03-01T08:26:14.724Z,1010.24
2018-03-01T08:27:14.621Z,1010.28
2018-03-01T08:28:14.630Z,1010.27
2018-03-01T08:29:14.624Z,1010.26
2018-03-01T08:30:14.670Z,1010.2
2018-03-01T08:31:14.634Z,1010.18
2018-03-01T08:32:14.674Z,1010.2
2018-03-01T08:33:14.654Z,1010.08
2018-03-01T08:34:14.660Z,1010.09
2018-03-01T08:35:14.608Z,1010.07
2018-03-01T08:36:14.623Z,1010.09
2018-03-01T08:37:14.629Z,1010.07
2018-03-01T08:38:14.621Z,1010.05
2018-03-01T08:39:14.635Z,1010.01
2018-03-01T08:40:14.614Z,1010.01
2018-03-01T08:41:14.608Z,1010.01
2018-03-01T08:42:14.614Z,1010.02
2018-03-01T08:43:14.620Z,1010.02
2018-03-01T08:44:14.643Z,1010.05
2018-03-01T08:45:14.653Z,1010.1
2018-03-01T08:46:14.632Z,1010.09
2018-03-01T08:47:14.604Z,1010.04
2018-03-01T08:48:14.610Z,1010.1
2018-03-01T08:49:14.643Z,1010.09
2018-03-01T08:50:14.626Z,1010.19
2018-03-01T08:51:14.609Z,1010.13
2018-03-01T08:52:14.617Z,1010.13
2018-03-01T08:53:14.603Z,1010.14
2018-03-01T08:54:14.620Z,1010.13
2018-03-01T08:55:14.622Z,1010.05
2018-03-01T08:56:14.639Z,1010.03
2018-03-01T08:57:14.590Z,1010.06
2018-03-01T08:58:14.618Z,1010.09
2018-03-01T08:59:14.611Z,1010.03
2018-03-01T09:00:14.608Z,1010
2018-03-01T09:01:14.673Z,1010.08
2018-03-01T09:02:14.631Z,1010.15
2018-03-01T09:03:14.604Z,1010.08
2018-03-01T09:04:14.640Z,1010.09
2018-03-01T09:05:14.634Z,1009.95
2018-03-01T09:06:14.629Z,1009.93
2018-03-01T09:07:14.605Z,1009.96
2018-03-01T09:08:14.602Z,1009.9
2018-03-01T09:09:14.597Z,1009.85
2018-03-01T09:10:14.656Z,1009.87
2018-03-01T09:11:14.639Z,1009.89
2018-03-01T09:12:14.624Z,1009.87
2018-03-01T09:13:14.598Z,1009.84
2018-03-01T09:14:14.594Z,1009.74
2018-03-01T09:15:14.668Z,1009.77
2018-03-01T09:16:14.601Z,1009.74
2018-03-01T09:17:14.613Z,1009.71
2018-03-01T09:18:14.602Z,1009.76
2018-03-01T09:19:14.598Z,1009.75
2018-03-01T09:20:14.654Z,1009.72
2018-03-01T09:21:14.606Z,1009.72
2018-03-01T09:22:14.600Z,1009.67
2018-03-01T09:23:14.602Z,1009.68
2018-03-01T09:24:14.607Z,1009.56
2018-03-01T09:25:14.612Z,1009.61
2018-03-01T09:26:14.603Z,1009.58
2018-03-01T09:27:14.576Z,1009.57
2018-03-01T09:28:14.615Z,1009.55
2018-03-01T09:29:14.628Z,1009.52
2018-03-01T09:30:14.576Z,1009.45
2018-03-01T09:31:14.644Z,1009.5
2018-03-01T09:32:14.606Z,1009.53
2018-03-01T09:33:14.592Z,1009.54
2018-03-01T09:34:14.607Z,1009.51
2018-03-01T09:35:14.598Z,1009.46
2018-03-01T09:36:14.610Z,1009.43
2018-03-01T09:37:14.595Z,1009.42
2018-03-01T09:38:14.604Z,1009.45
2018-03-01T09:39:14.608Z,1009.38
2018-03-01T09:40:14.599Z,1009.4
2018-03-01T09:41:14.589Z,1009.37
2018-03-01T09:42:14.590Z,1009.34
2018-03-01T09:43:14.604Z,1009.34
2018-03-01T09:44:14.600Z,1009.27
2018-03-01T09:45:14.590Z,1009.25
2018-03-01T09:46:14.619Z,1009.32
2018-03-01T09:47:14.579Z,1009.26
2018-03-01T09:48:14.595Z,1009.27
2018-03-01T09:49:14.575Z,1009.25
2018-03-01T09:50:14.581Z,1009.22
2018-03-01T09:51:14.601Z,1009.19
2018-03-01T09:52:14.577Z,1009.19
2018-03-01T09:53:14.590Z,1009.18
2018-03-01T09:54:14.628Z,1009.19
2018-03-01T09:55:14.591Z,1009.17
2018-03-01T09:56:14.650Z,1009.18
2018-03-01T09:57:14.597Z,1009.22
2018-03-01T09:58:14.614Z,1009.14
2018-03-01T09:59:14.587Z,1009.16
2018-03-01T10:00:14.635Z,1009.17
2018-03-01T10:01:14.588Z,1009.12
2018-03-01T10:02:14.913Z,1009.12
2018-03-01T10:03:14.645Z,1009.1
2018-03-01T10:04:14.572Z,1009.06
2018-03-01T10:05:14.769Z,1009.1
2018-03-01T10:06:14.581Z,1009.09
2018-03-01T10:07:14.736Z,1009.06
2018-03-01T10:08:14.575Z,1009.1
2018-03-01T10:09:14.604Z,1009.11
2018-03-01T10:10:14.596Z,1009.09
2018-03-01T10:11:14.598Z,1009.18
2018-03-01T10:12:14.608Z,1009.12
2018-03-01T10:13:14.567Z,1009.04
2018-03-01T10:14:14.593Z,1009.1
2018-03-01T10:15:14.566Z,1009.07
2018-03-01T10:16:14.579Z,1009.1
2018-03-01T10:17:14.653Z,1009.02
2018-03-01T10:18:14.603Z,1009.02
2018-03-01T10:19:14.598Z,1009.05
2018-03-01T10:20:14.585Z,1008.99
2018-03-01T10:21:14.584Z,1009.02
2018-03-01T10:22:14.600Z,1008.92
2018-03-01T10:23:14.581Z,1008.95
2018-03-01T10:24:14.594Z,1008.96
2018-03-01T10:25:14.616Z,1008.99
2018-03-01T10:26:14.677Z,1008.99
2018-03-01T10:27:14.683Z,1009.05
2018-03-01T10:28:14.573Z,1008.97
2018-03-01T10:29:14.585Z,1008.95
2018-03-01T10:30:14.603Z,1008.94
2018-03-01T10:31:14.601Z,1008.93
2018-03-01T10:32:14.594Z,1009
2018-03-01T10:33:14.614Z,1008.93
2018-03-01T10:34:14.583Z,1008.94
2018-03-01T10:35:14.592Z,1008.92
2018-03-01T10:36:14.592Z,1008.87
2018-03-01T10:37:14.576Z,1008.93
2018-03-01T10:38:14.619Z,1008.88
2018-03-01T10:39:14.578Z,1008.94
2018-03-01T10:40:14.560Z,1008.95
2018-03-01T10:41:14.567Z,1008.9
2018-03-01T10:42:14.617Z,1008.91
2018-03-01T10:43:14.609Z,1008.9
2018-03-01T10:44:14.556Z,1008.89
2018-03-01T10:45:14.573Z,1008.83
2018-03-01T10:46:14.573Z,1008.88
2018-03-01T10:47:14.587Z,1008.83
2018-03-01T10:48:14.612Z,1008.86
2018-03-01T10:49:14.615Z,1008.94
2018-03-01T10:50:14.573Z,1008.92
2018-03-01T10:51:14.564Z,1008.89
2018-03-01T10:52:14.611Z,1008.92
2018-03-01T10:53:14.588Z,1008.91
2018-03-01T10:54:14.853Z,1008.87
2018-03-01T10:55:14.589Z,1008.8
2018-03-01T10:56:14.581Z,1008.79
2018-03-01T10:57:14.559Z,1008.72
2018-03-01T10:58:14.590Z,1008.7
2018-03-01T10:59:14.599Z,1008.76
2018-03-01T11:00:14.575Z,1008.7
2018-03-01T11:01:14.583Z,1008.73
2018-03-01T11:02:14.571Z,1008.74
2018-03-01T11:03:14.556Z,1008.66
2018-03-01T11:04:14.602Z,1008.63
2018-03-01T11:05:14.699Z,1008.63
2018-03-01T11:06:14.589Z,1008.61
2018-03-01T11:07:14.574Z,1008.58
2018-03-01T11:08:14.578Z,1008.58
2018-03-01T11:09:14.599Z,1008.54
2018-03-01T11:10:14.575Z,1008.51
2018-03-01T11:11:14.560Z,1008.49
2018-03-01T11:12:14.555Z,1008.55
2018-03-01T11:13:14.557Z,1008.47
2018-03-01T11:14:14.568Z,1008.49
2018-03-01T11:15:14.558Z,1008.5
2018-03-01T11:16:14.590Z,1008.45
2018-03-01T11:17:14.785Z,1008.41
2018-03-01T11:18:14.570Z,1008.44
2018-03-01T11:19:14.568Z,1008.44
2018-03-01T11:20:14.552Z,1008.43
2018-03-01T11:21:14.587Z,1008.44
2018-03-01T11:22:14.554Z,1008.39
2018-03-01T11:23:14.741Z,1008.39
2018-03-01T11:24:14.586Z,1008.36
2018-03-01T11:25:14.574Z,1008.36
2018-03-01T11:26:14.562Z,1008.39
2018-03-01T11:27:14.554Z,1008.35
2018-03-01T11:28:14.585Z,1008.31
2018-03-01T11:29:14.690Z,1008.3
2018-03-01T11:30:14.553Z,1008.32
2018-03-01T11:31:14.559Z,1008.24
2018-03-01T11:32:14.552Z,1008.27
2018-03-01T11:33:14.565Z,1008.22
2018-03-01T11:34:14.562Z,1008.13
2018-03-01T11:35:14.580Z,1008.16
2018-03-01T11:36:14.556Z,1008.12
2018-03-01T11:37:14.564Z,1008.09
2018-03-01T11:38:14.567Z,1008.04
2018-03-01T11:39:14.585Z,1007.99
2018-03-01T11:40:14.591Z,1008
2018-03-01T11:41:14.529Z,1007.92
2018-03-01T11:42:14.541Z,1007.92
2018-03-01T11:43:14.555Z,1007.95
2018-03-01T11:44:14.583Z,1007.95
2018-03-01T11:45:14.568Z,1007.97
2018-03-01T11:46:14.550Z,1007.96
2018-03-01T11:47:14.562Z,1007.89
2018-03-01T11:48:14.558Z,1007.92
2018-03-01T11:49:14.703Z,1007.89
2018-03-01T11:50:14.547Z,1007.91
2018-03-01T11:51:14.560Z,1007.88
2018-03-01T11:52:14.564Z,1007.85
2018-03-01T11:53:14.563Z,1007.88
2018-03-01T11:54:14.547Z,1007.81
2018-03-01T11:55:14.559Z,1007.79
2018-03-01T11:56:14.534Z,1007.75
2018-03-01T11:57:14.541Z,1007.73
2018-03-01T11:58:14.551Z,1007.68
2018-03-01T11:59:14.620Z,1007.62
2018-03-01T12:00:14.566Z,1007.61
2018-03-01T12:01:14.551Z,1007.59
2018-03-01T12:02:14.552Z,1007.54
2018-03-01T12:03:14.537Z,1007.54
2018-03-01T12:04:14.578Z,1007.53
2018-03-01T12:05:14.564Z,1007.5
2018-03-01T12:06:14.547Z,1007.49
2018-03-01T12:07:14.597Z,1007.46
2018-03-01T12:08:14.529Z,1007.45